»·PEaware :: ECADR KVNY-KSNA

ECADR :: KVNY-KSNA

FLIGHT INFORMATION

Flight Status: Arrived
Operator: Unknown
More flights by this operator :: More flights under this callsign
Pilot: Adrián R. (20842)
Aircraft: CESSNA 172 SKYHAWK
(C172)
More flights by this aircraft type
Origin: KVNY Van Nuys
United States
Destination: KSNA John Wayne-Orange Co
United States
More flights between these airports :: More routes between these airports
Route: +
File this flight plan on PilotEdge
Remarks: CAT 10 RATING
Altitude:
(Current/Filed)
5,500ft
Speed:
(Current/Filed)
100kts
Departed: 01-Nov-18 08:12 AM
Arrived: 01-Nov-18 08:49 AM
Distance/Time
Traveled:
44nm/0:37
Distance/Time
To Go:
Arrived

Flight Plot

Page will automatically refresh every two minutes.


Map Options




Map Legend


Flown Route
Filed Route
Departure Airport
Arrival Airport
Navaid (VOR, NDB)
Fix

Horizontal Profiles

Position Reports

Time Latitude Longitude Heading Altitude Ground
Speed
01-Nov-18 08:06 34.218703 -118.493483 88 806ft 0kts
01-Nov-18 08:07 34.218703 -118.493483 88 806ft 0kts
01-Nov-18 08:08 34.218703 -118.493483 88 806ft 0kts
01-Nov-18 08:09 34.218703 -118.493483 88 806ft 0kts
01-Nov-18 08:10 34.218703 -118.493483 88 806ft 0kts
01-Nov-18 08:11 34.218792 -118.492776 96 806ft 15kts
01-Nov-18 08:12 34.218731 -118.492178 86 806ft 0kts
01-Nov-18 08:13 34.218731 -118.492178 86 806ft 0kts
01-Nov-18 08:14 34.218754 -118.492003 80 806ft 7kts
01-Nov-18 08:15 34.206810 -118.490200 175 1094ft 83kts
01-Nov-18 08:16 34.189998 -118.500834 263 2034ft 86kts
01-Nov-18 08:17 34.186299 -118.532224 263 2307ft 110kts
01-Nov-18 08:18 34.179371 -118.569142 225 2636ft 110kts
01-Nov-18 08:19 34.155328 -118.564473 151 3651ft 89kts
01-Nov-18 08:20 34.139216 -118.577076 294 4426ft 87kts
01-Nov-18 08:21 34.153346 -118.570485 102 5194ft 88kts
01-Nov-18 08:22 34.147429 -118.538571 95 5495ft 113kts
01-Nov-18 08:23 34.122023 -118.520814 171 5493ft 114kts
01-Nov-18 08:24 34.091977 -118.510372 157 5494ft 112kts
01-Nov-18 08:25 34.063217 -118.495884 156 5494ft 111kts
01-Nov-18 08:26 34.034759 -118.481288 154 5494ft 111kts
01-Nov-18 08:27 34.006222 -118.466427 156 5494ft 111kts
01-Nov-18 08:28 33.977302 -118.452448 157 5494ft 112kts
01-Nov-18 08:29 33.948355 -118.439191 157 5494ft 112kts
01-Nov-18 08:30 33.921997 -118.420807 134 5494ft 110kts
01-Nov-18 08:31 33.899672 -118.396003 135 5494ft 110kts
01-Nov-18 08:32 33.876147 -118.372506 137 5493ft 110kts
01-Nov-18 08:33 33.852991 -118.348806 136 5493ft 109kts
01-Nov-18 08:34 33.830049 -118.324787 136 5493ft 109kts
01-Nov-18 08:35 33.807331 -118.300490 136 5492ft 109kts
01-Nov-18 08:36 33.784236 -118.274987 135 5491ft 114kts
01-Nov-18 08:37 33.760408 -118.249641 137 5490ft 114kts
01-Nov-18 08:38 33.736449 -118.224348 137 5430ft 114kts
01-Nov-18 08:39 33.714833 -118.196692 119 4947ft 111kts
01-Nov-18 08:40 33.703676 -118.161612 108 4325ft 115kts
01-Nov-18 08:41 33.691188 -118.126697 108 3804ft 114kts
01-Nov-18 08:42 33.679778 -118.091717 114 3338ft 112kts
01-Nov-18 08:43 33.667493 -118.057587 112 2830ft 111kts
01-Nov-18 08:44 33.655790 -118.023479 111 2369ft 110kts
01-Nov-18 08:45 33.658573 -117.988235 72 1944ft 109kts
01-Nov-18 08:46 33.665131 -117.952790 78 1549ft 108kts
01-Nov-18 08:47 33.670379 -117.917222 81 1155ft 107kts
01-Nov-18 08:48 33.676148 -117.885001 47 1082ft 94kts
01-Nov-18 08:49 33.696815 -117.870472 28 1124ft 82kts
01-Nov-18 08:50 33.701708 -117.852996 175 645ft 77kts
01-Nov-18 08:51 33.683782 -117.863718 206 148ft 60kts
01-Nov-18 08:52 33.675953 -117.869813 296 60ft 10kts
01-Nov-18 08:53 33.675982 -117.869881 296 60ft 0kts
01-Nov-18 08:54 33.675989 -117.869900 294 60ft 0kts
01-Nov-18 08:55 33.675993 -117.869910 293 60ft 0kts
01-Nov-18 08:56 33.675841 -117.871361 189 60ft 7kts
01-Nov-18 08:57 33.675721 -117.871224 39 60ft 0kts
01-Nov-18 08:58 33.675721 -117.871224 40 60ft 0kts
01-Nov-18 08:59 33.675721 -117.871224 40 60ft 0kts
01-Nov-18 08:59 33.675721 -117.871224 40 60ft 0kts

Navigation Log

Ident Type
Flight plan parsing failed, navigation log unavailable